createdAt,value
2023-04-17T00:00:01.990Z,377.00
2023-04-17T00:01:02.016Z,377.00
2023-04-17T00:02:02.191Z,377.00
2023-04-17T00:03:02.218Z,378.00
2023-04-17T00:04:02.139Z,378.00
2023-04-17T00:05:02.149Z,377.00
2023-04-17T00:06:02.039Z,377.00
2023-04-17T00:07:02.053Z,379.00
2023-04-17T00:08:02.005Z,379.00
2023-04-17T00:09:02.120Z,381.00
2023-04-17T00:10:02.114Z,380.00
2023-04-17T00:11:07.678Z,380.00
2023-04-17T00:12:03.083Z,381.00
2023-04-17T00:13:02.046Z,380.00
2023-04-17T00:14:02.110Z,378.00
2023-04-17T00:15:02.002Z,378.00
2023-04-17T00:16:02.127Z,377.00
2023-04-17T00:17:02.020Z,378.00
2023-04-17T00:18:02.095Z,376.00
2023-04-17T00:19:02.029Z,376.00
2023-04-17T00:20:02.042Z,376.00
2023-04-17T00:21:01.992Z,379.00
2023-04-17T00:22:02.004Z,379.00
2023-04-17T00:23:01.978Z,380.00
2023-04-17T00:24:01.988Z,380.00
2023-04-17T00:25:01.956Z,381.00
2023-04-17T00:26:01.982Z,381.00
2023-04-17T00:27:01.970Z,379.00
2023-04-17T00:28:01.942Z,380.00
2023-04-17T00:29:01.922Z,379.00
2023-04-17T00:30:01.927Z,380.00
2023-04-17T00:31:01.923Z,381.00
2023-04-17T00:32:02.054Z,380.00
2023-04-17T00:33:02.003Z,380.00
2023-04-17T00:34:01.924Z,378.00
2023-04-17T00:35:01.917Z,379.00
2023-04-17T00:36:02.089Z,381.00
2023-04-17T00:37:01.918Z,382.00
2023-04-17T00:38:01.911Z,381.00
2023-04-17T00:39:01.910Z,381.00
2023-04-17T00:40:01.958Z,382.00
2023-04-17T00:41:01.953Z,381.00
2023-04-17T00:42:01.932Z,380.00
2023-04-17T00:43:02.043Z,380.00
2023-04-17T00:44:01.994Z,380.00
2023-04-17T00:45:02.032Z,380.00
2023-04-17T00:46:02.101Z,383.00
2023-04-17T00:47:02.069Z,382.00
2023-04-17T00:48:02.074Z,382.00
2023-04-17T00:49:02.103Z,381.00
2023-04-17T00:50:02.111Z,381.00
2023-04-17T00:51:02.151Z,382.00
2023-04-17T00:52:02.139Z,381.00
2023-04-17T00:53:02.210Z,381.00
2023-04-17T00:54:02.167Z,379.00
2023-04-17T00:55:02.241Z,377.00
2023-04-17T00:56:02.189Z,377.00
2023-04-17T00:57:02.178Z,376.00
2023-04-17T00:58:02.216Z,377.00
2023-04-17T00:59:02.242Z,376.00
2023-04-17T01:00:02.350Z,379.00
2023-04-17T01:01:02.297Z,380.00
2023-04-17T01:02:02.456Z,380.00
2023-04-17T01:03:02.391Z,379.00
2023-04-17T01:04:02.441Z,378.00
2023-04-17T01:05:02.324Z,378.00
2023-04-17T01:06:02.351Z,379.00
2023-04-17T01:07:02.313Z,378.00
2023-04-17T01:08:02.332Z,379.00
2023-04-17T01:09:02.364Z,379.00
2023-04-17T01:10:02.367Z,379.00
2023-04-17T01:11:02.368Z,381.00
2023-04-17T01:12:02.404Z,382.00
2023-04-17T01:13:02.427Z,382.00
2023-04-17T01:14:02.445Z,379.00
2023-04-17T01:15:02.416Z,379.00
2023-04-17T01:16:02.422Z,379.00
2023-04-17T01:17:02.571Z,380.00
2023-04-17T01:18:02.531Z,382.00
2023-04-17T01:19:02.476Z,381.00
2023-04-17T01:20:02.525Z,383.00
2023-04-17T01:21:02.523Z,385.00
2023-04-17T01:22:02.545Z,386.00
2023-04-17T01:23:02.500Z,387.00
2023-04-17T01:24:02.552Z,387.00
2023-04-17T01:25:02.576Z,386.00
2023-04-17T01:26:02.579Z,386.00
2023-04-17T01:27:02.593Z,385.00
2023-04-17T01:28:02.598Z,383.00
2023-04-17T01:29:02.597Z,383.00
2023-04-17T01:30:02.673Z,381.00
2023-04-17T01:31:02.648Z,381.00
2023-04-17T01:32:02.679Z,383.00
2023-04-17T01:33:02.728Z,383.00
2023-04-17T01:34:02.688Z,384.00
2023-04-17T01:35:02.758Z,384.00
2023-04-17T01:36:02.700Z,385.00
2023-04-17T01:37:02.745Z,385.00
2023-04-17T01:38:02.762Z,384.00
2023-04-17T01:39:02.797Z,385.00
2023-04-17T01:40:02.800Z,388.00
2023-04-17T01:41:02.803Z,387.00
2023-04-17T01:42:02.842Z,386.00
2023-04-17T01:43:02.831Z,382.00
2023-04-17T01:44:02.858Z,382.00
2023-04-17T01:45:02.923Z,381.00
2023-04-17T01:46:02.907Z,381.00
2023-04-17T01:47:02.907Z,380.00
2023-04-17T01:48:02.988Z,382.00
2023-04-17T01:49:02.916Z,381.00
2023-04-17T01:50:02.946Z,378.00
2023-04-17T01:51:03.006Z,377.00
2023-04-17T01:52:03.004Z,378.00
2023-04-17T01:53:03.017Z,377.00
2023-04-17T01:54:03.004Z,376.00
2023-04-17T01:55:03.027Z,378.00
2023-04-17T01:56:03.058Z,378.00
2023-04-17T01:57:03.081Z,380.00
2023-04-17T01:58:03.140Z,382.00
2023-04-17T01:59:03.129Z,383.00
2023-04-17T02:00:03.176Z,382.00
2023-04-17T02:01:03.183Z,383.00
2023-04-17T02:02:03.300Z,382.00
2023-04-17T02:03:03.404Z,381.00
2023-04-17T02:04:03.420Z,381.00
2023-04-17T02:05:03.249Z,380.00
2023-04-17T02:06:03.273Z,380.00
2023-04-17T02:07:03.359Z,382.00
2023-04-17T02:08:03.345Z,384.00
2023-04-17T02:09:03.349Z,385.00
2023-04-17T02:10:03.509Z,386.00
2023-04-17T02:11:03.383Z,385.00
2023-04-17T02:12:03.401Z,384.00
2023-04-17T02:13:03.437Z,386.00
2023-04-17T02:14:03.470Z,384.00
2023-04-17T02:15:03.450Z,384.00
2023-04-17T02:16:03.582Z,383.00
2023-04-17T02:17:03.535Z,383.00
2023-04-17T02:18:03.561Z,384.00
2023-04-17T02:19:03.548Z,384.00
2023-04-17T02:20:03.611Z,384.00
2023-04-17T02:21:03.610Z,384.00
2023-04-17T02:22:03.636Z,386.00
2023-04-17T02:23:03.674Z,385.00
2023-04-17T02:24:03.666Z,385.00
2023-04-17T02:25:03.749Z,385.00
2023-04-17T02:26:03.728Z,387.00
2023-04-17T02:27:03.750Z,385.00
2023-04-17T02:28:03.797Z,386.00
2023-04-17T02:29:03.827Z,385.00
2023-04-17T02:30:03.814Z,385.00
2023-04-17T02:31:03.857Z,384.00
2023-04-17T02:32:03.893Z,384.00
2023-04-17T02:33:03.939Z,385.00
2023-04-17T02:34:03.902Z,384.00
2023-04-17T02:35:03.967Z,384.00
2023-04-17T02:36:03.964Z,384.00
2023-04-17T02:37:03.968Z,384.00
2023-04-17T02:38:03.997Z,383.00
2023-04-17T02:39:04.048Z,383.00
2023-04-17T02:40:04.078Z,384.00
2023-04-17T02:41:04.094Z,381.00
2023-04-17T02:42:04.118Z,382.00
2023-04-17T02:43:04.157Z,381.00
2023-04-17T02:44:04.118Z,381.00
2023-04-17T02:45:04.160Z,382.00
2023-04-17T02:46:04.213Z,384.00
2023-04-17T02:47:04.381Z,385.00
2023-04-17T02:48:04.257Z,386.00
2023-04-17T02:49:04.250Z,384.00
2023-04-17T02:50:04.262Z,383.00
2023-04-17T02:51:04.327Z,383.00
2023-04-17T02:52:04.349Z,387.00
2023-04-17T02:53:04.309Z,390.00
2023-04-17T02:54:04.378Z,390.00
2023-04-17T02:55:04.398Z,388.00
2023-04-17T02:56:04.407Z,387.00
2023-04-17T02:57:04.459Z,386.00
2023-04-17T02:58:04.501Z,388.00
2023-04-17T02:59:04.469Z,388.00
2023-04-17T03:00:04.494Z,388.00
2023-04-17T03:01:04.567Z,390.00
2023-04-17T03:02:04.588Z,391.00
2023-04-17T03:03:04.693Z,394.00
2023-04-17T03:04:04.862Z,394.00
2023-04-17T03:05:04.660Z,394.00
2023-04-17T03:06:04.595Z,391.00
2023-04-17T03:07:04.689Z,389.00
2023-04-17T03:08:04.697Z,392.00
2023-04-17T03:09:04.735Z,391.00
2023-04-17T03:10:04.836Z,391.00
2023-04-17T03:11:04.786Z,391.00
2023-04-17T03:12:04.850Z,390.00
2023-04-17T03:13:04.816Z,391.00
2023-04-17T03:14:04.859Z,390.00
2023-04-17T03:15:06.466Z,390.00
2023-04-17T03:16:04.898Z,391.00
2023-04-17T03:17:04.852Z,392.00
2023-04-17T03:18:04.929Z,392.00
2023-04-17T03:19:04.872Z,391.00
2023-04-17T03:20:04.837Z,392.00
2023-04-17T03:21:04.864Z,391.00
2023-04-17T03:22:04.848Z,393.00
2023-04-17T03:23:04.814Z,393.00
2023-04-17T03:24:04.801Z,392.00
2023-04-17T03:25:04.816Z,392.00
2023-04-17T03:26:04.811Z,392.00
2023-04-17T03:27:04.819Z,391.00
2023-04-17T03:28:04.763Z,391.00
2023-04-17T03:29:04.791Z,391.00
2023-04-17T03:30:04.778Z,390.00
2023-04-17T03:31:04.773Z,390.00
2023-04-17T03:32:04.822Z,390.00
2023-04-17T03:33:04.779Z,390.00
2023-04-17T03:34:04.728Z,391.00
2023-04-17T03:35:04.773Z,390.00
2023-04-17T03:36:04.704Z,389.00
2023-04-17T03:37:04.703Z,392.00
2023-04-17T03:38:04.700Z,390.00
2023-04-17T03:39:04.694Z,390.00
2023-04-17T03:40:04.705Z,391.00
2023-04-17T03:41:04.689Z,392.00
2023-04-17T03:42:04.704Z,394.00
2023-04-17T03:43:04.667Z,392.00
2023-04-17T03:44:04.693Z,392.00
2023-04-17T03:45:04.717Z,393.00
2023-04-17T03:46:04.693Z,392.00
2023-04-17T03:47:04.621Z,393.00
2023-04-17T03:48:04.663Z,394.00
2023-04-17T03:49:04.629Z,393.00
2023-04-17T03:50:04.611Z,394.00
2023-04-17T03:51:04.600Z,393.00
2023-04-17T03:52:04.644Z,394.00
2023-04-17T03:53:04.617Z,393.00
2023-04-17T03:54:04.629Z,392.00
2023-04-17T03:55:04.602Z,391.00
2023-04-17T03:56:04.587Z,391.00
2023-04-17T03:57:04.580Z,393.00
2023-04-17T03:58:04.594Z,394.00
2023-04-17T03:59:04.646Z,394.00
2023-04-17T04:00:04.565Z,394.00
2023-04-17T04:01:04.508Z,396.00
2023-04-17T04:02:04.651Z,397.00
2023-04-17T04:03:04.729Z,395.00
2023-04-17T04:04:04.734Z,396.00
2023-04-17T04:05:04.513Z,396.00
2023-04-17T04:06:04.472Z,395.00
2023-04-17T04:07:04.552Z,392.00
2023-04-17T04:08:04.578Z,390.00
2023-04-17T04:09:04.639Z,391.00
2023-04-17T04:10:04.682Z,391.00
2023-04-17T04:11:04.706Z,390.00
2023-04-17T04:12:04.713Z,390.00
2023-04-17T04:13:04.766Z,389.00
2023-04-17T04:14:04.785Z,388.00
2023-04-17T04:15:04.840Z,390.00
2023-04-17T04:16:04.969Z,391.00
2023-04-17T04:17:04.941Z,393.00
2023-04-17T04:18:05.003Z,393.00
2023-04-17T04:19:04.997Z,391.00
2023-04-17T04:20:04.992Z,390.00
2023-04-17T04:21:05.071Z,390.00
2023-04-17T04:22:06.803Z,391.00
2023-04-17T04:23:05.114Z,392.00
2023-04-17T04:24:05.174Z,392.00
2023-04-17T04:25:05.241Z,390.00
2023-04-17T04:26:05.285Z,391.00
2023-04-17T04:27:05.373Z,392.00
2023-04-17T04:28:05.360Z,394.00
2023-04-17T04:29:05.362Z,396.00
2023-04-17T04:30:05.431Z,396.00
2023-04-17T04:31:05.522Z,396.00
2023-04-17T04:32:05.496Z,395.00
2023-04-17T04:33:06.706Z,395.00
2023-04-17T04:34:05.563Z,397.00
2023-04-17T04:35:05.618Z,399.00
2023-04-17T04:36:05.625Z,397.00
2023-04-17T04:37:05.594Z,399.00
2023-04-17T04:38:05.661Z,399.00
2023-04-17T04:39:05.698Z,400.00
2023-04-17T04:40:05.725Z,399.00
2023-04-17T04:41:05.807Z,399.00
2023-04-17T04:42:05.886Z,400.00
2023-04-17T04:43:05.842Z,399.00
2023-04-17T04:44:05.932Z,399.00
2023-04-17T04:45:05.891Z,397.00
2023-04-17T04:46:05.973Z,398.00
2023-04-17T04:47:05.996Z,400.00
2023-04-17T04:48:06.065Z,402.00
2023-04-17T04:49:06.072Z,402.00
2023-04-17T04:50:06.096Z,401.00
2023-04-17T04:51:06.170Z,399.00
2023-04-17T04:52:06.180Z,401.00
2023-04-17T04:53:06.216Z,401.00
2023-04-17T04:54:06.296Z,401.00
2023-04-17T04:55:06.313Z,400.00
2023-04-17T04:56:06.310Z,399.00
2023-04-17T04:57:06.339Z,399.00
2023-04-17T04:58:06.354Z,399.00
2023-04-17T04:59:06.440Z,399.00
2023-04-17T05:00:06.579Z,401.00
2023-04-17T05:01:06.588Z,400.00
2023-04-17T05:02:06.571Z,399.00
2023-04-17T05:03:06.798Z,400.00
2023-04-17T05:04:06.834Z,402.00
2023-04-17T05:05:06.806Z,402.00
2023-04-17T05:06:06.701Z,402.00
2023-04-17T05:07:06.705Z,404.00
2023-04-17T05:08:06.794Z,404.00
2023-04-17T05:09:07.013Z,403.00
2023-04-17T05:10:06.829Z,403.00
2023-04-17T05:11:06.937Z,403.00
2023-04-17T05:12:06.897Z,403.00
2023-04-17T05:13:06.928Z,402.00
2023-04-17T05:14:06.950Z,403.00
2023-04-17T05:15:07.043Z,402.00
2023-04-17T05:16:07.052Z,402.00
2023-04-17T05:17:07.059Z,401.00
2023-04-17T05:18:07.101Z,402.00
2023-04-17T05:19:07.097Z,402.00
2023-04-17T05:20:07.146Z,401.00
2023-04-17T05:21:07.212Z,402.00
2023-04-17T05:22:07.206Z,401.00
2023-04-17T05:23:07.216Z,403.00
2023-04-17T05:24:07.248Z,402.00
2023-04-17T05:25:07.280Z,400.00
2023-04-17T05:26:07.312Z,400.00
2023-04-17T05:27:07.326Z,401.00
2023-04-17T05:28:07.382Z,401.00
2023-04-17T05:29:07.452Z,402.00
2023-04-17T05:30:07.499Z,403.00
2023-04-17T05:31:07.553Z,403.00
2023-04-17T05:32:07.780Z,404.00
2023-04-17T05:33:07.555Z,404.00
2023-04-17T05:34:07.539Z,406.00
2023-04-17T05:35:07.539Z,407.00
2023-04-17T05:36:07.561Z,408.00
2023-04-17T05:37:07.568Z,406.00
2023-04-17T05:38:07.562Z,414.00
2023-04-17T05:39:07.552Z,505.00
2023-04-17T05:40:07.615Z,502.00
2023-04-17T05:41:07.635Z,501.00
2023-04-17T05:42:07.595Z,503.00
2023-04-17T05:43:07.631Z,504.00
2023-04-17T05:44:07.778Z,514.00
2023-04-17T05:45:07.718Z,518.00
2023-04-17T05:46:07.948Z,528.00
2023-04-17T05:47:07.817Z,533.00
2023-04-17T05:48:07.868Z,539.00
2023-04-17T05:49:07.965Z,545.00
2023-04-17T05:50:08.002Z,555.00
2023-04-17T05:51:08.029Z,562.00
2023-04-17T05:52:08.080Z,566.00
2023-04-17T05:53:08.074Z,568.00
2023-04-17T05:54:08.131Z,565.00
2023-04-17T05:55:08.214Z,564.00
2023-04-17T05:56:08.199Z,566.00
2023-04-17T05:57:08.285Z,568.00
2023-04-17T05:58:23.225Z,566.00
2023-04-17T05:59:09.252Z,569.00
2023-04-17T06:00:08.301Z,570.00
2023-04-17T06:01:08.207Z,570.00
2023-04-17T06:02:08.262Z,584.00
2023-04-17T06:03:08.567Z,585.00
2023-04-17T06:04:08.441Z,581.00
2023-04-17T06:05:08.451Z,581.00
2023-04-17T06:06:08.230Z,581.00
2023-04-17T06:07:08.225Z,581.00
2023-04-17T06:08:08.237Z,580.00
2023-04-17T06:09:08.194Z,577.00
2023-04-17T06:10:08.137Z,577.00
2023-04-17T06:11:08.176Z,577.00
2023-04-17T06:12:08.167Z,577.00
2023-04-17T06:13:08.167Z,579.00
2023-04-17T06:14:08.148Z,579.00
2023-04-17T06:15:08.998Z,579.00
2023-04-17T06:16:08.140Z,581.00
2023-04-17T06:17:08.244Z,579.00
2023-04-17T06:18:08.178Z,579.00
2023-04-17T06:19:08.101Z,578.00
2023-04-17T06:20:08.111Z,579.00
2023-04-17T06:21:08.089Z,580.00
2023-04-17T06:22:08.088Z,583.00
2023-04-17T06:23:08.151Z,584.00
2023-04-17T06:24:08.100Z,587.00
2023-04-17T06:25:08.075Z,587.00
2023-04-17T06:26:08.050Z,587.00
2023-04-17T06:27:08.172Z,587.00
2023-04-17T06:28:08.198Z,591.00
2023-04-17T06:29:08.321Z,592.00
2023-04-17T06:30:08.274Z,591.00
2023-04-17T06:31:08.462Z,591.00
2023-04-17T06:32:08.405Z,588.00
2023-04-17T06:33:08.556Z,588.00
2023-04-17T06:34:08.522Z,586.00
2023-04-17T06:35:08.593Z,586.00
2023-04-17T06:36:08.626Z,590.00
2023-04-17T06:37:08.792Z,592.00
2023-04-17T06:38:10.178Z,588.00
2023-04-17T06:39:08.850Z,596.00
2023-04-17T06:40:08.853Z,613.00
2023-04-17T06:41:08.935Z,624.00
2023-04-17T06:42:09.308Z,629.00
2023-04-17T06:43:09.202Z,636.00
2023-04-17T06:44:09.029Z,624.00
2023-04-17T06:45:09.131Z,619.00
2023-04-17T06:46:09.132Z,614.00
2023-04-17T06:47:09.271Z,608.00
2023-04-17T06:48:09.222Z,605.00
2023-04-17T06:49:09.305Z,603.00
2023-04-17T06:50:09.333Z,601.00
2023-04-17T06:51:09.415Z,602.00
2023-04-17T06:52:09.383Z,604.00
2023-04-17T06:53:09.472Z,605.00
2023-04-17T06:54:09.506Z,605.00
2023-04-17T06:55:09.523Z,603.00
2023-04-17T06:56:09.604Z,600.00
2023-04-17T06:57:09.633Z,595.00
2023-04-17T06:58:09.708Z,591.00
2023-04-17T06:59:09.899Z,594.00
2023-04-17T07:00:09.760Z,595.00
2023-04-17T07:01:09.801Z,598.00
2023-04-17T07:02:09.975Z,598.00
2023-04-17T07:03:09.967Z,598.00
2023-04-17T07:04:10.073Z,598.00
2023-04-17T07:05:09.968Z,596.00
2023-04-17T07:06:09.968Z,596.00
2023-04-17T07:07:10.001Z,596.00
2023-04-17T07:08:10.804Z,596.00
2023-04-17T07:09:10.067Z,595.00
2023-04-17T07:10:10.096Z,595.00
2023-04-17T07:11:10.371Z,593.00
2023-04-17T07:12:10.119Z,592.00
2023-04-17T07:13:10.132Z,594.00
2023-04-17T07:14:12.691Z,595.00
2023-04-17T07:15:10.160Z,595.00
2023-04-17T07:16:10.175Z,594.00
2023-04-17T07:17:10.121Z,594.00
2023-04-17T07:18:10.204Z,597.00
2023-04-17T07:19:10.370Z,595.00
2023-04-17T07:20:10.128Z,597.00
2023-04-17T07:21:10.094Z,600.00
2023-04-17T07:22:10.187Z,600.00
2023-04-17T07:23:10.084Z,600.00
2023-04-17T07:24:10.083Z,597.00
2023-04-17T07:25:10.157Z,595.00
2023-04-17T07:26:10.149Z,596.00
2023-04-17T07:27:10.092Z,597.00
2023-04-17T07:28:10.049Z,596.00
2023-04-17T07:29:10.336Z,593.00
2023-04-17T07:30:10.059Z,595.00
2023-04-17T07:31:10.036Z,596.00
2023-04-17T07:32:10.045Z,598.00
2023-04-17T07:33:10.136Z,605.00
2023-04-17T07:34:10.053Z,618.00
2023-04-17T07:35:10.065Z,703.00
2023-04-17T07:36:10.026Z,671.00
2023-04-17T07:37:10.015Z,661.00
2023-04-17T07:38:09.984Z,672.00
2023-04-17T07:39:10.135Z,691.00
2023-04-17T07:40:09.977Z,694.00
2023-04-17T07:41:09.990Z,704.00
2023-04-17T07:42:09.945Z,731.00
2023-04-17T07:43:09.911Z,758.00
2023-04-17T07:44:09.939Z,756.00
2023-04-17T07:45:09.967Z,760.00
2023-04-17T07:46:09.913Z,765.00
2023-04-17T07:47:09.942Z,771.00
2023-04-17T07:48:09.974Z,777.00
2023-04-17T07:49:12.092Z,785.00
2023-04-17T07:50:09.967Z,790.00
2023-04-17T07:51:10.025Z,794.00
2023-04-17T07:52:10.380Z,794.00
2023-04-17T07:53:10.108Z,797.00
2023-04-17T07:54:10.188Z,798.00
2023-04-17T07:55:10.284Z,798.00
2023-04-17T07:56:12.595Z,800.00
2023-04-17T07:57:10.391Z,805.00
2023-04-17T07:58:10.437Z,805.00
2023-04-17T07:59:10.707Z,806.00
2023-04-17T08:00:10.830Z,810.00
2023-04-17T08:01:10.658Z,819.00
2023-04-17T08:02:10.883Z,823.00
2023-04-17T08:03:10.948Z,822.00
2023-04-17T08:04:11.034Z,824.00
2023-04-17T08:05:10.915Z,827.00
2023-04-17T08:06:10.884Z,822.00
2023-04-17T08:07:10.970Z,817.00
2023-04-17T08:08:10.969Z,819.00
2023-04-17T08:09:11.380Z,824.00
2023-04-17T08:10:11.037Z,825.00
2023-04-17T08:11:11.273Z,823.00
2023-04-17T08:12:11.126Z,823.00
2023-04-17T08:13:11.172Z,821.00
2023-04-17T08:14:11.385Z,820.00
2023-04-17T08:15:11.248Z,822.00
2023-04-17T08:16:11.261Z,831.00
2023-04-17T08:17:11.357Z,829.00
2023-04-17T08:18:11.358Z,829.00
2023-04-17T08:19:11.496Z,828.00
2023-04-17T08:20:11.327Z,829.00
2023-04-17T08:21:11.519Z,828.00
2023-04-17T08:22:11.476Z,830.00
2023-04-17T08:23:11.416Z,829.00
2023-04-17T08:24:11.434Z,831.00
2023-04-17T08:25:11.514Z,831.00
2023-04-17T08:26:11.518Z,725.00
2023-04-17T08:27:11.786Z,680.00
2023-04-17T08:28:11.594Z,648.00
2023-04-17T08:29:11.814Z,631.00
2023-04-17T08:30:13.351Z,578.00
2023-04-17T08:31:11.589Z,562.00
2023-04-17T08:32:15.262Z,552.00
2023-04-17T08:33:11.594Z,543.00
2023-04-17T08:34:15.110Z,544.00
2023-04-17T08:35:11.567Z,580.00
2023-04-17T08:36:11.560Z,599.00
2023-04-17T08:37:11.611Z,606.00
2023-04-17T08:38:11.601Z,612.00
2023-04-17T08:39:11.855Z,628.00
2023-04-17T08:40:11.541Z,644.00
2023-04-17T08:41:11.548Z,680.00
2023-04-17T08:42:15.859Z,682.00
2023-04-17T08:43:12.501Z,697.00
2023-04-17T08:44:11.528Z,704.00
2023-04-17T08:45:11.542Z,714.00
2023-04-17T08:46:11.707Z,728.00
2023-04-17T08:47:11.511Z,739.00
2023-04-17T08:48:11.487Z,746.00
2023-04-17T08:49:11.748Z,749.00
2023-04-17T08:50:11.506Z,753.00
2023-04-17T08:51:11.498Z,761.00
2023-04-17T08:52:12.030Z,768.00
2023-04-17T08:53:11.492Z,775.00
2023-04-17T08:54:11.455Z,779.00
2023-04-17T08:55:11.475Z,789.00
2023-04-17T08:56:11.837Z,791.00
2023-04-17T08:57:11.533Z,790.00
2023-04-17T08:58:11.645Z,789.00
2023-04-17T08:59:11.840Z,790.00
2023-04-17T09:00:11.700Z,791.00
2023-04-17T09:01:11.744Z,798.00
2023-04-17T09:02:11.894Z,800.00
2023-04-17T09:03:26.525Z,802.00
2023-04-17T09:04:12.007Z,810.00
2023-04-17T09:05:11.780Z,815.00
2023-04-17T09:06:11.783Z,815.00
2023-04-17T09:07:11.827Z,816.00
2023-04-17T09:08:11.843Z,817.00
2023-04-17T09:09:11.958Z,823.00
2023-04-17T09:10:11.742Z,821.00
2023-04-17T09:11:11.829Z,817.00
2023-04-17T09:12:11.749Z,818.00
2023-04-17T09:13:11.745Z,820.00
2023-04-17T09:14:11.756Z,818.00
2023-04-17T09:15:11.698Z,817.00
2023-04-17T09:16:11.722Z,815.00
2023-04-17T09:17:11.723Z,814.00
2023-04-17T09:18:11.770Z,820.00
2023-04-17T09:19:11.957Z,831.00
2023-04-17T09:20:11.638Z,834.00
2023-04-17T09:21:11.697Z,837.00
2023-04-17T09:22:11.685Z,842.00
2023-04-17T09:23:11.627Z,849.00
2023-04-17T09:24:11.656Z,848.00
2023-04-17T09:25:11.600Z,846.00
2023-04-17T09:26:11.640Z,850.00
2023-04-17T09:27:11.621Z,849.00
2023-04-17T09:28:11.671Z,852.00
2023-04-17T09:29:12.359Z,856.00
2023-04-17T09:30:11.582Z,872.00
2023-04-17T09:31:12.481Z,874.00
2023-04-17T09:32:11.620Z,865.00
2023-04-17T09:33:11.571Z,869.00
2023-04-17T09:34:11.565Z,883.00
2023-04-17T09:35:11.583Z,775.00
2023-04-17T09:36:11.587Z,738.00
2023-04-17T09:37:11.622Z,732.00
2023-04-17T09:38:11.533Z,732.00
2023-04-17T09:39:11.715Z,719.00
2023-04-17T09:40:11.509Z,736.00
2023-04-17T09:41:11.508Z,747.00
2023-04-17T09:42:11.545Z,761.00
2023-04-17T09:43:11.583Z,767.00
2023-04-17T09:44:11.827Z,767.00
2023-04-17T09:45:11.489Z,774.00
2023-04-17T09:46:11.507Z,783.00
2023-04-17T09:47:11.510Z,786.00
2023-04-17T09:48:11.501Z,791.00
2023-04-17T09:49:11.420Z,791.00
2023-04-17T09:50:11.470Z,796.00
2023-04-17T09:51:11.490Z,803.00
2023-04-17T09:52:11.492Z,770.00
2023-04-17T09:53:11.419Z,777.00
2023-04-17T09:54:18.360Z,781.00
2023-04-17T09:55:11.450Z,773.00
2023-04-17T09:56:11.419Z,748.00
2023-04-17T09:57:11.412Z,683.00
2023-04-17T09:58:11.388Z,658.00
2023-04-17T09:59:11.383Z,641.00
2023-04-17T10:00:11.385Z,596.00
2023-04-17T10:01:11.432Z,591.00
2023-04-17T10:02:11.440Z,583.00
2023-04-17T10:03:11.572Z,571.00
2023-04-17T10:04:11.844Z,569.00
2023-04-17T10:05:11.387Z,564.00
2023-04-17T10:06:11.399Z,626.00
2023-04-17T10:07:11.313Z,643.00
2023-04-17T10:08:11.323Z,643.00
2023-04-17T10:09:11.337Z,648.00
2023-04-17T10:10:11.308Z,652.00
2023-04-17T10:11:11.420Z,652.00
2023-04-17T10:12:11.313Z,652.00
2023-04-17T10:13:11.326Z,654.00
2023-04-17T10:14:11.742Z,658.00
2023-04-17T10:15:11.260Z,657.00
2023-04-17T10:16:11.332Z,655.00
2023-04-17T10:17:11.301Z,653.00
2023-04-17T10:18:11.285Z,656.00
2023-04-17T10:19:11.261Z,663.00
2023-04-17T10:20:11.271Z,661.00
2023-04-17T10:21:11.267Z,652.00
2023-04-17T10:22:11.207Z,652.00
2023-04-17T10:23:11.228Z,651.00
2023-04-17T10:24:11.577Z,648.00
2023-04-17T10:25:11.207Z,654.00
2023-04-17T10:26:11.234Z,660.00
2023-04-17T10:27:11.318Z,705.00
2023-04-17T10:28:11.358Z,708.00
2023-04-17T10:29:11.876Z,709.00
2023-04-17T10:30:11.479Z,710.00
2023-04-17T10:31:11.563Z,709.00
2023-04-17T10:32:11.874Z,715.00
2023-04-17T10:33:11.762Z,719.00
2023-04-17T10:34:11.873Z,721.00
2023-04-17T10:35:11.818Z,715.00
2023-04-17T10:36:11.880Z,708.00
2023-04-17T10:37:11.934Z,699.00
2023-04-17T10:38:12.006Z,695.00
2023-04-17T10:39:12.264Z,691.00
2023-04-17T10:40:12.918Z,683.00
2023-04-17T10:41:12.190Z,676.00
2023-04-17T10:42:12.235Z,670.00
2023-04-17T10:43:12.306Z,667.00
2023-04-17T10:44:12.345Z,664.00
2023-04-17T10:45:12.383Z,654.00
2023-04-17T10:46:12.514Z,625.00
2023-04-17T10:48:12.571Z,616.00
2023-04-17T10:49:12.722Z,612.00
2023-04-17T10:50:12.632Z,610.00
2023-04-17T10:51:12.711Z,611.00
2023-04-17T10:52:12.752Z,610.00
2023-04-17T10:53:14.101Z,608.00
2023-04-17T10:54:12.853Z,607.00
2023-04-17T10:55:12.866Z,606.00
2023-04-17T10:56:12.938Z,599.00
2023-04-17T10:57:12.898Z,591.00
2023-04-17T10:58:12.946Z,582.00
2023-04-17T10:59:13.274Z,576.00
2023-04-17T11:00:12.967Z,574.00
2023-04-17T11:01:13.009Z,569.00
2023-04-17T11:02:13.032Z,561.00
2023-04-17T11:03:12.987Z,557.00
2023-04-17T11:04:12.991Z,551.00
2023-04-17T11:05:12.947Z,553.00
2023-04-17T11:06:12.936Z,558.00
2023-04-17T11:07:12.924Z,557.00
2023-04-17T11:08:12.925Z,555.00
2023-04-17T11:09:13.109Z,554.00
2023-04-17T11:10:12.954Z,551.00
2023-04-17T11:11:12.900Z,549.00
2023-04-17T11:12:12.964Z,551.00
2023-04-17T11:13:12.894Z,563.00
2023-04-17T11:14:14.337Z,622.00
2023-04-17T11:15:12.974Z,626.00
2023-04-17T11:16:13.021Z,630.00
2023-04-17T11:17:13.183Z,633.00
2023-04-17T11:18:13.207Z,637.00
2023-04-17T11:19:13.377Z,645.00
2023-04-17T11:20:13.203Z,654.00
2023-04-17T11:21:13.248Z,658.00
2023-04-17T11:22:13.374Z,706.00
2023-04-17T11:23:13.285Z,687.00
2023-04-17T11:24:13.374Z,680.00
2023-04-17T11:25:13.400Z,674.00
2023-04-17T11:26:13.437Z,664.00
2023-04-17T11:27:13.461Z,648.00
2023-04-17T11:28:13.510Z,631.00
2023-04-17T11:29:14.713Z,611.00
2023-04-17T11:30:13.585Z,599.00
2023-04-17T11:31:13.619Z,591.00
2023-04-17T11:32:13.628Z,583.00
2023-04-17T11:33:13.659Z,577.00
2023-04-17T11:34:13.702Z,569.00
2023-04-17T11:35:13.710Z,562.00
2023-04-17T11:36:13.831Z,554.00
2023-04-17T11:37:13.870Z,547.00
2023-04-17T11:38:13.936Z,537.00
2023-04-17T11:39:14.107Z,530.00
2023-04-17T11:40:14.005Z,525.00
2023-04-17T11:41:14.054Z,517.00
2023-04-17T11:42:14.169Z,511.00
2023-04-17T11:43:14.229Z,506.00
2023-04-17T11:44:14.283Z,500.00
2023-04-17T11:45:14.318Z,494.00
2023-04-17T11:46:14.451Z,491.00
2023-04-17T11:47:14.441Z,487.00
2023-04-17T11:48:14.558Z,481.00
2023-04-17T11:49:14.596Z,477.00
2023-04-17T11:50:14.686Z,472.00
2023-04-17T11:51:14.667Z,467.00
2023-04-17T11:52:17.075Z,463.00
2023-04-17T11:53:14.749Z,462.00
2023-04-17T11:54:14.763Z,456.00
2023-04-17T11:55:14.761Z,455.00
2023-04-17T11:56:14.771Z,453.00
2023-04-17T11:57:14.801Z,451.00
2023-04-17T11:58:14.743Z,447.00
2023-04-17T11:59:14.750Z,444.00
2023-04-17T12:00:14.753Z,439.00
2023-04-17T12:01:14.706Z,443.00
2023-04-17T12:02:14.817Z,456.00
2023-04-17T12:03:14.943Z,455.00
2023-04-17T12:04:15.019Z,450.00
2023-04-17T12:05:14.850Z,453.00
2023-04-17T12:06:14.685Z,451.00
2023-04-17T12:07:14.687Z,450.00
2023-04-17T12:08:14.670Z,449.00
2023-04-17T12:09:14.662Z,450.00
2023-04-17T12:10:14.662Z,454.00
2023-04-17T12:11:14.692Z,459.00
2023-04-17T12:12:14.672Z,463.00
2023-04-17T12:13:14.643Z,475.00
2023-04-17T12:14:15.004Z,480.00
2023-04-17T12:15:14.635Z,487.00
2023-04-17T12:16:14.706Z,491.00
2023-04-17T12:17:14.610Z,495.00
2023-04-17T12:18:16.917Z,502.00
2023-04-17T12:19:14.745Z,506.00
2023-04-17T12:20:14.727Z,509.00
2023-04-17T12:21:14.791Z,515.00
2023-04-17T12:22:14.849Z,516.00
2023-04-17T12:23:14.917Z,517.00
2023-04-17T12:24:14.975Z,528.00
2023-04-17T12:25:15.012Z,531.00
2023-04-17T12:26:15.103Z,527.00
2023-04-17T12:27:15.143Z,529.00
2023-04-17T12:28:16.015Z,534.00
2023-04-17T12:29:15.199Z,538.00